LDZU weather

CLOSED Udbina Air Base
Udbina, Lika-Senj County, Croatia

Public forecast

Using degrees Celsius for public forecast. Weather courtesy of forecast.io.

Closest aviation weather report (METAR) to Udbina Air Base

Closest report is Zadar Airport, 32.6 nm (60.4 km) SW. Retrieved 2020/07/07 09:30 UTC (3 minutes ago):

LDZD 070930Z 07016KT 020V100 9999 FEW050 SCT075 22/09 Q1014 NOSIG

Closest aviation forecast (TAF) to Udbina Air Base

Closest forecast is Zadar Airport, 32.6 nm (60.4 km) SW. Retrieved 2020/07/07 06:30 UTC (3 hours ago):

TAF LDZD 070526Z 0706/0806 04022KT CAVOK TX28/0713Z TN16/0804Z TEMPO 0706/0709 04025G38KT BECMG 0709/0711 04012KT PROB40 TEMPO 0709/0721 04015G25KT BECMG 0721/0723 06006KT